Time;durP1;ratioP1;P1;durP2;ratioP2;P2;SDS_P1;SDS_P2;PMS_P1;PMS_P2;Temp;Humidity;BMP_temperature;BMP_pressure;BME280_temperature;BME280_humidity;BME280_pressure;Samples;Min_cycle;Max_cycle;Signal;HPM_P1;HPM_P2
2022/05/27 00:00:49;;;;;;;17.67;4.68;;;14.60;99.90;;;;;;5054666;28;20048;-77
2022/05/27 00:03:17;;;;;;;11.27;5.25;;;14.60;99.90;;;;;;5072739;28;20051;-77
2022/05/27 00:05:43;;;;;;;9.95;5.38;;;14.60;99.90;;;;;;5072856;28;20127;-77
2022/05/27 00:08:10;;;;;;;9.77;5.70;;;14.60;99.90;;;;;;5072445;28;20098;-76
2022/05/27 00:10:36;;;;;;;18.17;6.28;;;14.60;99.90;;;;;;5072552;28;20040;-77
2022/05/27 00:13:03;;;;;;;9.75;4.43;;;14.60;99.90;;;;;;5072341;28;20057;-77
2022/05/27 00:15:29;;;;;;;14.65;5.53;;;14.60;99.90;;;;;;5072485;28;20047;-77
2022/05/27 00:17:54;;;;;;;10.02;5.30;;;14.50;99.90;;;;;;5072647;28;20366;-77
2022/05/27 00:20:21;;;;;;;10.40;5.45;;;14.60;99.90;;;;;;5072114;28;20068;-77
2022/05/27 00:22:46;;;;;;;12.32;5.07;;;14.50;99.90;;;;;;5072196;28;20385;-76
2022/05/27 00:25:13;;;;;;;13.07;4.93;;;14.50;99.90;;;;;;5073530;28;20048;-76
2022/05/27 00:27:39;;;;;;;11.38;4.78;;;14.50;99.90;;;;;;5076193;28;20045;-75
2022/05/27 00:30:06;;;;;;;13.63;5.70;;;14.50;99.90;;;;;;5075792;28;20048;-76
2022/05/27 00:32:32;;;;;;;13.70;4.72;;;14.40;99.90;;;;;;5075953;28;20136;-76
2022/05/27 00:34:58;;;;;;;8.18;4.97;;;14.40;99.90;;;;;;5075450;28;20492;-75
2022/05/27 00:37:23;;;;;;;16.38;5.38;;;14.40;99.90;;;;;;5075263;28;20048;-75
2022/05/27 00:39:49;;;;;;;14.20;5.25;;;14.40;99.90;;;;;;5057621;28;20060;-76
2022/05/27 00:42:15;;;;;;;14.93;5.63;;;14.40;99.90;;;;;;5075216;28;20040;-74
2022/05/27 00:44:40;;;;;;;13.43;5.72;;;14.40;99.90;;;;;;5075185;28;20161;-74
2022/05/27 00:47:15;;;;;;;8.07;4.75;;;14.30;99.90;;;;;;5075203;28;20438;-75
2022/05/27 00:49:51;;;;;;;11.60;4.95;;;14.30;99.90;;;;;;5075272;28;20051;-74
2022/05/27 00:52:20;;;;;;;13.43;4.55;;;14.30;99.90;;;;;;5075586;28;20122;-75
2022/05/27 00:54:47;;;;;;;9.05;5.20;;;14.20;99.90;;;;;;5075324;28;20102;-75
2022/05/27 00:57:18;;;;;;;9.68;4.40;;;14.20;99.90;;;;;;5074891;28;20128;-75
2022/05/27 01:00:12;;;;;;;12.88;5.15;;;14.10;99.90;;;;;;5074890;28;20169;-75
2022/05/27 01:02:39;;;;;;;9.18;4.68;;;14.10;99.90;;;;;;5073143;28;20053;-75
2022/05/27 01:05:07;;;;;;;12.20;5.28;;;14.00;99.90;;;;;;5074769;28;20059;-75
2022/05/27 01:07:33;;;;;;;10.98;4.55;;;14.00;99.90;;;;;;5056907;28;20051;-75
2022/05/27 01:10:01;;;;;;;9.70;4.55;;;14.00;99.90;;;;;;5074367;28;20049;-75
2022/05/27 01:12:41;;;;;;;11.93;4.43;;;13.90;99.90;;;;;;5074677;28;20060;-75
2022/05/27 01:15:31;;;;;;;16.63;5.18;;;13.90;99.90;;;;;;5074995;28;20048;-75
2022/05/27 01:18:17;;;;;;;7.97;4.07;;;13.80;99.90;;;;;;5057340;28;20044;-75
2022/05/27 01:20:57;;;;;;;10.88;4.05;;;13.80;99.90;;;;;;5075108;28;20048;-75
2022/05/27 01:23:56;;;;;;;11.02;5.50;;;13.70;99.90;;;;;;5074425;28;20052;-75
2022/05/27 01:26:39;;;;;;;10.88;4.00;;;13.70;99.90;;;;;;5074195;28;20502;-74
2022/05/27 01:29:41;;;;;;;7.38;4.00;;;13.70;99.90;;;;;;5074973;28;20047;-75
2022/05/27 01:32:19;;;;;;;9.80;4.60;;;13.70;99.90;;;;;;5074336;28;20052;-75
2022/05/27 01:35:15;;;;;;;8.18;4.13;;;13.60;99.90;;;;;;5074971;28;20106;-75
2022/05/27 01:38:04;;;;;;;11.55;3.70;;;13.60;99.90;;;;;;5074648;28;20044;-75
2022/05/27 01:40:42;;;;;;;8.30;3.78;;;13.60;99.90;;;;;;5074326;28;20083;-75
2022/05/27 01:43:37;;;;;;;7.63;3.55;;;13.60;99.90;;;;;;5074096;28;20140;-74
2022/05/27 01:46:11;;;;;;;10.32;4.50;;;13.60;99.90;;;;;;5074070;28;20483;-74
2022/05/27 01:48:43;;;;;;;8.90;3.72;;;13.60;99.90;;;;;;5056613;28;20084;-75
2022/05/27 01:51:17;;;;;;;8.98;3.20;;;13.60;99.90;;;;;;5055809;28;20117;-75
2022/05/27 01:53:53;;;;;;;12.48;3.28;;;13.40;99.90;;;;;;5056244;28;20052;-75
2022/05/27 01:56:49;;;;;;;11.55;3.72;;;13.50;99.90;;;;;;5073736;28;20044;-75
2022/05/27 01:59:59;;;;;;;9.43;3.80;;;13.50;99.90;;;;;;5073699;28;20090;-75
2022/05/27 02:02:29;;;;;;;13.80;5.15;;;13.40;99.90;;;;;;5057822;28;20048;-75
2022/05/27 02:05:23;;;;;;;5.30;2.50;;;13.30;99.90;;;;;;5073973;28;20453;-74
2022/05/27 02:07:59;;;;;;;8.45;3.10;;;13.30;99.90;;;;;;5049974;28;20084;-75
2022/05/27 02:10:34;;;;;;;11.75;4.40;;;13.20;99.90;;;;;;5073528;28;20044;-74
2022/05/27 02:13:11;;;;;;;11.48;3.85;;;13.10;99.90;;;;;;5073411;28;20044;-75
2022/05/27 02:15:43;;;;;;;11.05;3.10;;;13.10;99.90;;;;;;5073731;28;20102;-75
2022/05/27 02:18:26;;;;;;;5.90;2.53;;;13.00;99.90;;;;;;5073240;28;20089;-75
2022/05/27 02:21:22;;;;;;;9.20;4.22;;;13.00;99.90;;;;;;5073610;28;20467;-75
2022/05/27 02:24:02;;;;;;;10.07;3.40;;;12.90;99.90;;;;;;5071773;28;20156;-75
2022/05/27 02:26:32;;;;;;;4.30;2.90;;;12.90;99.90;;;;;;5073252;28;20106;-75
2022/05/27 02:29:20;;;;;;;6.47;3.15;;;12.90;99.90;;;;;;5055770;28;20067;-75
2022/05/27 02:31:52;;;;;;;5.93;2.90;;;12.80;99.90;;;;;;5073133;28;20049;-75
2022/05/27 02:37:18;;;;;;;8.73;3.50;;;12.80;99.90;;;;;;5072920;28;20063;-75
2022/05/27 02:39:43;;;;;;;8.40;2.90;;;12.80;99.90;;;;;;5073472;28;20048;-75
2022/05/27 02:42:30;;;;;;;8.70;3.17;;;12.70;99.90;;;;;;5038638;28;20094;-75
2022/05/27 02:45:17;;;;;;;9.45;3.65;;;12.70;99.90;;;;;;5072918;28;20047;-75
2022/05/27 02:48:01;;;;;;;7.65;3.05;;;12.60;99.90;;;;;;5072900;28;20048;-75
2022/05/27 02:50:37;;;;;;;10.20;3.78;;;12.70;99.90;;;;;;5073156;28;20052;-75
2022/05/27 02:53:24;;;;;;;6.80;2.67;;;12.60;99.90;;;;;;5072944;28;20346;-75
2022/05/27 02:55:49;;;;;;;6.88;2.70;;;12.60;99.90;;;;;;5072789;28;20562;-75
2022/05/27 02:58:16;;;;;;;10.07;3.38;;;12.60;99.90;;;;;;5072635;28;20079;-73
2022/05/27 03:00:44;;;;;;;9.65;3.80;;;12.50;99.90;;;;;;5072626;28;20052;-75
2022/05/27 03:03:10;;;;;;;6.40;2.60;;;12.50;99.90;;;;;;5072783;28;20048;-75
2022/05/27 03:06:00;;;;;;;5.70;2.38;;;12.40;99.90;;;;;;5072600;28;20133;-75
2022/05/27 03:08:39;;;;;;;7.03;2.55;;;12.50;99.90;;;;;;5073034;28;20088;-75
2022/05/27 03:11:08;;;;;;;6.97;2.40;;;12.40;99.90;;;;;;5073002;28;20044;-75
2022/05/27 03:13:55;;;;;;;9.15;3.10;;;12.30;99.90;;;;;;5072489;28;20052;-75
2022/05/27 03:16:42;;;;;;;7.50;2.53;;;12.40;99.90;;;;;;5072600;28;20054;-75
2022/05/27 03:19:26;;;;;;;4.18;2.25;;;12.40;99.90;;;;;;5072920;28;20080;-75
2022/05/27 03:21:54;;;;;;;6.28;2.80;;;12.40;99.90;;;;;;5072421;28;20048;-75
2022/05/27 03:24:39;;;;;;;7.47;3.13;;;12.30;99.90;;;;;;5055490;28;20044;-74
2022/05/27 03:27:11;;;;;;;5.72;2.55;;;12.30;99.90;;;;;;5054599;28;20048;-75
2022/05/27 03:29:46;;;;;;;10.18;2.42;;;12.10;99.90;;;;;;5072257;28;20480;-74
2022/05/27 03:32:45;;;;;;;4.03;2.78;;;12.30;99.90;;;;;;5072602;28;20048;-75
2022/05/27 03:35:47;;;;;;;4.40;1.88;;;12.30;99.90;;;;;;5072824;28;20056;-74
2022/05/27 03:38:51;;;;;;;8.60;3.50;;;12.30;99.90;;;;;;5072372;28;20041;-74
2022/05/27 03:41:23;;;;;;;5.97;3.40;;;12.30;99.90;;;;;;5072215;28;20048;-74
2022/05/27 03:43:50;;;;;;;7.78;2.53;;;12.20;99.90;;;;;;5072629;28;20048;-75
2022/05/27 03:46:37;;;;;;;8.20;3.00;;;12.40;99.90;;;;;;5072382;28;20088;-74
2022/05/27 03:49:04;;;;;;;6.80;2.72;;;12.20;99.90;;;;;;5072795;28;20074;-75
2022/05/27 03:51:35;;;;;;;8.52;3.60;;;12.20;99.90;;;;;;5072867;28;20414;-75
2022/05/27 03:54:04;;;;;;;7.65;2.60;;;12.20;99.90;;;;;;5072263;28;20044;-75
2022/05/27 03:56:32;;;;;;;5.18;3.05;;;12.20;99.90;;;;;;5072559;28;20205;-74
2022/05/27 03:58:59;;;;;;;6.78;3.00;;;12.20;99.90;;;;;;5072099;28;20084;-75
2022/05/27 04:01:29;;;;;;;7.20;2.90;;;12.20;99.90;;;;;;5075442;28;20102;-75
2022/05/27 04:03:57;;;;;;;9.00;3.10;;;12.20;99.90;;;;;;5076053;28;20049;-75
2022/05/27 04:06:23;;;;;;;6.97;3.17;;;12.30;99.90;;;;;;5076168;28;20076;-74
2022/05/27 04:08:48;;;;;;;5.68;2.47;;;12.30;99.90;;;;;;5075840;28;20441;-75
2022/05/27 04:11:14;;;;;;;9.65;3.05;;;12.40;99.90;;;;;;5076390;28;20049;-75
2022/05/27 04:13:40;;;;;;;7.00;2.97;;;12.40;99.90;;;;;;5075873;28;20388;-75
2022/05/27 04:16:05;;;;;;;4.05;2.38;;;12.50;99.90;;;;;;5075748;28;20574;-75
2022/05/27 04:18:31;;;;;;;7.00;2.92;;;12.60;99.90;;;;;;5075686;28;20044;-75
2022/05/27 04:20:57;;;;;;;7.57;3.60;;;12.60;99.90;;;;;;5058508;28;20051;-75
2022/05/27 04:23:22;;;;;;;12.35;3.92;;;12.70;99.90;;;;;;5075601;28;20048;-74
2022/05/27 04:25:49;;;;;;;6.57;3.00;;;12.80;99.90;;;;;;5075516;28;20048;-75
2022/05/27 04:28:16;;;;;;;7.88;3.80;;;12.80;99.90;;;;;;5075543;28;20047;-75
2022/05/27 04:30:44;;;;;;;6.50;2.75;;;12.90;99.90;;;;;;5075875;28;20080;-75
2022/05/27 04:33:10;;;;;;;4.55;3.05;;;12.90;99.90;;;;;;5075516;28;20049;-75
2022/05/27 04:35:36;;;;;;;7.05;2.92;;;12.90;99.90;;;;;;5075318;28;20399;-75
2022/05/27 04:38:02;;;;;;;4.65;2.88;;;12.90;99.90;;;;;;5075879;28;20044;-75
2022/05/27 04:40:28;;;;;;;11.07;3.20;;;12.90;99.90;;;;;;5043694;28;20076;-75
2022/05/27 04:42:53;;;;;;;14.02;3.08;;;12.90;99.90;;;;;;5076376;28;20117;-72
2022/05/27 04:45:20;;;;;;;7.38;3.28;;;13.00;99.90;;;;;;5042667;28;20705;-72
2022/05/27 04:47:46;;;;;;;8.60;2.92;;;13.00;99.90;;;;;;5075928;28;20068;-71
2022/05/27 04:50:12;;;;;;;6.65;2.78;;;13.00;99.90;;;;;;5075304;28;20056;-75
2022/05/27 04:52:40;;;;;;;7.40;2.83;;;13.00;99.90;;;;;;5057944;28;20055;-74
2022/05/27 04:55:08;;;;;;;9.32;3.67;;;13.00;99.90;;;;;;5058108;28;20101;-75
2022/05/27 04:57:39;;;;;;;7.55;3.40;;;13.00;99.90;;;;;;5075667;28;20041;-75
2022/05/27 05:00:10;;;;;;;9.60;4.57;;;13.00;99.90;;;;;;5042075;28;20045;-75
2022/05/27 05:02:36;;;;;;;10.38;3.33;;;13.00;99.90;;;;;;5058630;28;20045;-75
2022/05/27 05:05:02;;;;;;;12.00;3.63;;;13.00;99.90;;;;;;5076686;28;20427;-75
2022/05/27 05:07:27;;;;;;;6.13;2.88;;;13.00;99.90;;;;;;5076879;28;20115;-75
2022/05/27 05:09:53;;;;;;;7.78;2.92;;;13.00;99.90;;;;;;5075747;28;20501;-74
2022/05/27 05:12:22;;;;;;;3.78;2.67;;;13.00;99.90;;;;;;5057167;28;20048;-74
2022/05/27 05:14:49;;;;;;;8.07;3.13;;;13.00;99.90;;;;;;5075029;28;20075;-74
2022/05/27 05:17:15;;;;;;;7.78;3.20;;;13.00;99.90;;;;;;5074850;28;20048;-75
2022/05/27 05:19:41;;;;;;;13.73;3.80;;;13.00;99.90;;;;;;5056740;28;20470;-75
2022/05/27 05:22:06;;;;;;;5.78;2.67;;;13.00;99.90;;;;;;5074924;28;20366;-75
2022/05/27 05:24:32;;;;;;;6.70;3.20;;;13.00;99.90;;;;;;5074315;28;20127;-75
2022/05/27 05:26:59;;;;;;;5.43;3.08;;;13.10;99.90;;;;;;5056691;28;20048;-74
2022/05/27 05:29:25;;;;;;;9.60;3.28;;;13.10;99.90;;;;;;5074285;28;20060;-75
2022/05/27 05:31:51;;;;;;;9.93;3.40;;;13.20;99.90;;;;;;5074225;28;20102;-75
2022/05/27 05:34:17;;;;;;;6.30;2.72;;;13.20;99.90;;;;;;5074597;28;20044;-75
2022/05/27 05:36:42;;;;;;;8.65;3.35;;;13.40;99.90;;;;;;5075076;28;20131;-75
2022/05/27 05:39:08;;;;;;;6.55;2.70;;;13.40;99.90;;;;;;5074325;28;20037;-75
2022/05/27 05:41:36;;;;;;;7.55;3.30;;;13.40;99.90;;;;;;5074463;28;20119;-75
2022/05/27 05:44:04;;;;;;;7.82;2.92;;;13.40;99.90;;;;;;5056923;28;20127;-75
2022/05/27 05:46:33;;;;;;;11.85;3.28;;;13.40;99.90;;;;;;5074245;28;20131;-75
2022/05/27 05:48:59;;;;;;;15.02;3.90;;;13.40;99.90;;;;;;5074779;28;20088;-75
2022/05/27 05:51:24;;;;;;;9.23;2.88;;;13.30;99.90;;;;;;5073985;28;20461;-75
2022/05/27 05:53:50;;;;;;;7.72;3.17;;;13.20;99.90;;;;;;5074187;28;20489;-75
2022/05/27 05:56:16;;;;;;;7.75;2.42;;;13.20;99.90;;;;;;5074146;28;20048;-74
2022/05/27 05:58:41;;;;;;;11.75;2.92;;;13.30;99.90;;;;;;5056212;28;20146;-75
2022/05/27 06:01:07;;;;;;;9.00;2.97;;;13.40;99.90;;;;;;5073986;28;20091;-74
2022/05/27 06:03:33;;;;;;;8.77;3.00;;;13.60;99.90;;;;;;5073803;28;20048;-75
2022/05/27 06:05:59;;;;;;;6.78;3.03;;;13.60;99.90;;;;;;5073739;28;20519;-75
2022/05/27 06:08:24;;;;;;;8.05;3.65;;;13.70;99.90;;;;;;5074205;28;20450;-75
2022/05/27 06:10:50;;;;;;;4.80;2.90;;;13.70;99.90;;;;;;5039915;28;20072;-74
2022/05/27 06:13:16;;;;;;;10.38;3.50;;;13.80;99.90;;;;;;5074176;28;20047;-75
2022/05/27 06:15:42;;;;;;;8.07;3.15;;;14.00;99.90;;;;;;5073637;28;20190;-75
2022/05/27 06:18:08;;;;;;;7.20;3.75;;;14.00;99.90;;;;;;5055969;28;20040;-75
2022/05/27 06:20:35;;;;;;;8.18;3.38;;;14.10;99.90;;;;;;5073138;28;20436;-76
2022/05/27 06:23:05;;;;;;;8.15;3.40;;;14.10;99.90;;;;;;5072606;28;20055;-76
2022/05/27 06:25:31;;;;;;;8.55;3.33;;;14.30;99.90;;;;;;5073187;28;20043;-81
2022/05/27 06:36:16;;;;;;;7.10;2.95;;;17.40;99.90;;;;;;5073013;28;20052;-78
2022/05/27 06:38:42;;;;;;;11.48;3.20;;;17.50;98.50;;;;;;5055640;28;20075;-80
2022/05/27 06:41:07;;;;;;;8.68;3.10;;;17.60;99.90;;;;;;5073236;28;20041;-80
2022/05/27 06:43:33;;;;;;;9.57;2.85;;;18.10;99.90;;;;;;5072958;28;20049;-81
2022/05/27 06:46:00;;;;;;;9.60;2.95;;;18.50;99.90;;;;;;5072414;28;20127;-80
2022/05/27 06:48:26;;;;;;;6.40;4.07;;;18.70;99.90;;;;;;5072589;28;20409;-81
2022/05/27 06:50:52;;;;;;;5.30;2.63;;;19.40;99.90;;;;;;5054824;28;20113;-80
2022/05/27 06:53:18;;;;;;;4.78;2.30;;;19.70;96.70;;;;;;5073605;28;20049;-79
2022/05/27 06:55:48;;;;;;;5.88;2.50;;;19.70;95.40;;;;;;5073221;28;20052;-80
2022/05/27 06:58:14;;;;;;;7.10;2.75;;;19.70;92.60;;;;;;5073029;28;20048;-80
2022/05/27 07:00:39;;;;;;;7.13;2.75;;;19.80;99.90;;;;;;5073434;28;20060;-81
2022/05/27 07:03:07;;;;;;;8.18;3.25;;;20.30;99.90;;;;;;5073565;28;20044;-81
2022/05/27 07:05:33;;;;;;;9.00;2.90;;;20.60;99.80;;;;;;5038468;28;20049;-80
2022/05/27 07:07:58;;;;;;;6.97;2.58;;;20.00;96.70;;;;;;5072724;28;20123;-81
2022/05/27 07:10:24;;;;;;;6.38;2.55;;;19.10;96.20;;;;;;5072933;28;20066;-80
2022/05/27 07:12:50;;;;;;;5.28;2.28;;;18.90;98.70;;;;;;5073331;28;20041;-79
2022/05/27 07:15:16;;;;;;;6.35;2.53;;;18.60;96.80;;;;;;5072667;28;20372;-79
2022/05/27 07:17:42;;;;;;;5.88;2.72;;;17.90;96.70;;;;;;5055587;28;20101;-81
2022/05/27 07:20:09;;;;;;;8.25;2.90;;;17.30;93.00;;;;;;5072930;28;20174;-81
2022/05/27 07:22:34;;;;;;;7.40;2.72;;;17.40;96.10;;;;;;5073318;28;20041;-79
2022/05/27 07:25:00;;;;;;;6.18;2.55;;;17.20;96.20;;;;;;5074396;28;20044;-77
2022/05/27 07:27:26;;;;;;;9.35;3.47;;;17.30;95.50;;;;;;5072722;28;20040;-79
2022/05/27 07:29:51;;;;;;;7.68;3.00;;;17.50;90.10;;;;;;5054820;28;20484;-78
2022/05/27 07:32:17;;;;;;;5.43;3.28;;;17.30;91.10;;;;;;5073071;28;20090;-73
2022/05/27 07:39:54;;;;;;;5.93;2.50;;;18.50;92.90;;;;;;5899478;22;20048;-74
2022/05/27 07:42:20;;;;;;;5.97;2.53;;;19.40;92.60;;;;;;5061360;28;20055;-76
2022/05/27 07:44:45;;;;;;;8.77;2.83;;;20.10;92.80;;;;;;5076329;28;20379;-79
2022/05/27 07:47:11;;;;;;;17.48;3.22;;;20.30;92.40;;;;;;5075842;28;20063;-81
2022/05/27 07:49:37;;;;;;;5.28;2.50;;;20.60;91.90;;;;;;5075783;28;20047;-78
2022/05/27 07:52:04;;;;;;;8.00;2.72;;;20.70;90.70;;;;;;5075267;28;20045;-77
2022/05/27 07:54:30;;;;;;;9.63;3.20;;;20.50;83.30;;;;;;5075967;28;20055;-77
2022/05/27 07:56:56;;;;;;;7.65;2.83;;;20.40;79.80;;;;;;5076031;28;20080;-77
2022/05/27 07:59:21;;;;;;;7.30;2.92;;;20.70;88.60;;;;;;5074761;28;20041;-78
2022/05/27 08:01:47;;;;;;;5.50;2.55;;;20.80;90.20;;;;;;5075824;28;20055;-77
2022/05/27 08:04:13;;;;;;;4.93;2.85;;;21.20;90.00;;;;;;5075968;28;20047;-78
2022/05/27 08:06:39;;;;;;;6.40;2.60;;;21.00;85.50;;;;;;5076305;28;20075;-78
2022/05/27 08:09:04;;;;;;;7.47;3.58;;;21.20;86.10;;;;;;5057707;28;20483;-77
2022/05/27 08:11:30;;;;;;;7.68;3.08;;;21.60;89.40;;;;;;5075723;28;20032;-79
2022/05/27 08:13:56;;;;;;;8.25;3.10;;;21.20;88.40;;;;;;5075953;28;20044;-75
2022/05/27 08:16:22;;;;;;;5.70;3.08;;;21.60;88.50;;;;;;5075390;28;20359;-76
2022/05/27 08:18:48;;;;;;;8.20;2.72;;;21.40;86.30;;;;;;5075229;28;20102;-75
2022/05/27 08:21:14;;;;;;;6.63;3.30;;;21.00;85.00;;;;;;5075552;28;20439;-78
2022/05/27 08:23:39;;;;;;;7.07;2.63;;;20.40;85.90;;;;;;5075496;28;20474;-78
2022/05/27 08:26:05;;;;;;;8.00;2.65;;;19.90;85.40;;;;;;5075279;28;20436;-83
2022/05/27 08:28:31;;;;;;;6.90;2.97;;;19.80;88.50;;;;;;5074838;28;20487;-79
2022/05/27 08:30:58;;;;;;;6.47;3.03;;;20.00;87.00;;;;;;5075379;28;20076;-78
2022/05/27 08:33:24;;;;;;;9.65;3.55;;;19.70;89.80;;;;;;5075141;28;20080;-78
2022/05/27 08:38:37;;;;;;;6.78;3.10;;;18.40;90.00;;;;;;5075402;28;20111;-80
2022/05/27 08:41:17;;;;;;;11.05;3.10;;;17.70;90.40;;;;;;5075408;28;20062;-80
2022/05/27 08:44:18;;;;;;;8.25;2.85;;;17.60;90.00;;;;;;5075379;28;20048;-78
2022/05/27 08:47:02;;;;;;;9.95;2.90;;;17.90;88.40;;;;;;5074667;28;20045;-77
2022/05/27 08:49:39;;;;;;;8.80;3.35;;;18.70;88.10;;;;;;5075170;28;20051;-78
2022/05/27 08:52:28;;;;;;;9.50;2.53;;;19.60;87.90;;;;;;5074945;28;20051;-82
2022/05/27 08:55:01;;;;;;;6.28;3.10;;;19.40;87.40;;;;;;5074848;28;20116;-78
2022/05/27 09:00:14;;;;;;;7.00;2.47;;;20.10;83.50;;;;;;5075402;28;19923;-80
2022/05/27 09:02:55;;;;;;;6.65;2.42;;;20.60;83.30;;;;;;5074908;28;20182;-80
2022/05/27 09:05:28;;;;;;;5.72;2.22;;;20.70;84.30;;;;;;5075507;28;20047;-81
2022/05/27 09:08:01;;;;;;;6.90;2.45;;;20.50;79.80;;;;;;5075320;28;20361;-80
2022/05/27 09:10:40;;;;;;;6.03;2.40;;;20.50;81.00;;;;;;5074902;28;20488;-80
2022/05/27 09:13:20;;;;;;;6.20;2.50;;;20.60;82.50;;;;;;5075391;28;20051;-80
2022/05/27 09:16:01;;;;;;;7.35;2.53;;;19.70;80.90;;;;;;5074771;28;20049;-78
2022/05/27 09:18:45;;;;;;;8.57;2.67;;;19.60;85.70;;;;;;5074889;28;20128;-78
2022/05/27 09:21:45;;;;;;;10.10;3.00;;;19.30;85.40;;;;;;5074868;28;20040;-78
2022/05/27 09:24:22;;;;;;;4.65;2.60;;;19.50;83.50;;;;;;5074902;28;20040;-79
2022/05/27 09:26:54;;;;;;;6.97;2.30;;;20.10;82.50;;;;;;5074807;28;20048;-78
2022/05/27 09:29:44;;;;;;;4.22;2.35;;;19.90;83.90;;;;;;5074704;28;20124;-77
2022/05/27 09:32:21;;;;;;;3.88;2.25;;;19.20;82.00;;;;;;5074317;28;20424;-77
2022/05/27 09:34:49;;;;;;;7.32;2.63;;;19.10;82.90;;;;;;5073138;28;20045;-78
2022/05/27 09:37:27;;;;;;;9.23;2.45;;;19.20;84.50;;;;;;5074573;28;20041;-79
2022/05/27 09:40:00;;;;;;;5.60;2.47;;;18.80;82.50;;;;;;5074520;28;20048;-77
2022/05/27 09:42:38;;;;;;;4.95;2.97;;;19.10;85.80;;;;;;5074309;28;20088;-91
2022/05/27 09:45:04;;;;;;;7.47;2.55;;;19.90;86.80;;;;;;5056889;28;20045;-86
2022/05/27 09:47:33;;;;;;;5.07;2.15;;;20.20;86.00;;;;;;5061533;28;20060;-84
2022/05/27 09:50:09;;;;;;;6.97;1.90;;;20.30;83.80;;;;;;5076383;28;20052;-86
2022/05/27 09:52:39;;;;;;;6.15;2.13;;;20.80;84.70;;;;;;5074128;28;20106;-87
2022/05/27 09:55:30;;;;;;;3.55;1.90;;;20.60;81.40;;;;;;5073996;28;20106;-83
2022/05/27 09:58:02;;;;;;;6.90;2.25;;;20.70;80.20;;;;;;5068699;28;20404;-93
2022/05/27 10:00:43;;;;;;;5.78;2.85;;;20.60;81.80;;;;;;5073754;28;20124;-85
2022/05/27 10:03:22;;;;;;;7.20;2.58;;;19.80;80.40;;;;;;5074445;28;20086;-87
2022/05/27 10:05:55;;;;;;;6.78;2.85;;;19.50;83.30;;;;;;5074256;28;20048;-91
2022/05/27 10:08:34;;;;;;;7.82;2.47;;;19.40;83.80;;;;;;5074288;28;20124;-86
2022/05/27 10:11:24;;;;;;;4.30;2.35;;;19.20;83.90;;;;;;5074565;28;20099;-86
2022/05/27 10:14:15;;;;;;;5.57;2.42;;;19.20;84.50;;;;;;5073432;28;20056;-86
2022/05/27 10:16:57;;;;;;;9.95;3.58;;;18.40;82.70;;;;;;5073514;28;20045;-87
2022/05/27 10:19:24;;;;;;;4.32;1.77;;;18.50;84.70;;;;;;5073792;28;20041;-83
2022/05/27 10:21:54;;;;;;;9.25;2.15;;;18.80;85.80;;;;;;5073855;28;20052;-83
2022/05/27 10:24:38;;;;;;;6.32;2.67;;;19.60;85.40;;;;;;5073759;28;20044;-85
2022/05/27 10:27:15;;;;;;;9.88;2.58;;;19.20;81.20;;;;;;5056009;28;20052;-85
2022/05/27 10:29:52;;;;;;;7.60;2.50;;;19.00;81.30;;;;;;5073690;28;20401;-86
2022/05/27 10:32:43;;;;;;;9.40;2.25;;;19.40;83.00;;;;;;5073696;28;20470;-86
2022/05/27 10:35:32;;;;;;;11.18;2.28;;;20.00;83.80;;;;;;5073244;28;20045;-88
2022/05/27 10:38:10;;;;;;;4.82;2.30;;;20.00;79.90;;;;;;5060896;28;20080;-79
2022/05/27 10:40:45;;;;;;;7.97;2.38;;;19.50;83.70;;;;;;5072908;28;20135;-77
2022/05/27 10:43:21;;;;;;;7.70;3.70;;;19.10;84.60;;;;;;5055937;28;20049;-79
2022/05/27 10:45:53;;;;;;;9.75;2.63;;;18.70;84.20;;;;;;5072831;28;20499;-78
2022/05/27 10:48:35;;;;;;;6.45;2.47;;;18.20;84.30;;;;;;5073281;28;20123;-77
2022/05/27 10:51:44;;;;;;;6.18;1.85;;;18.70;86.50;;;;;;5073329;28;20151;-78
2022/05/27 10:54:34;;;;;;;5.43;2.17;;;18.70;81.00;;;;;;5028325;28;20056;-78
2022/05/27 11:03:26;;;;;;;6.47;2.63;;;18.70;84.80;;;;;;5073384;28;20067;-78
2022/05/27 11:06:10;;;;;;;7.75;3.78;;;18.60;83.80;;;;;;5072632;28;20483;-78
2022/05/27 11:08:52;;;;;;;6.47;2.42;;;18.50;84.70;;;;;;5072545;28;20040;-78
2022/05/27 11:11:24;;;;;;;7.57;2.75;;;18.60;86.60;;;;;;5072739;28;20055;-79
2022/05/27 11:17:07;;;;;;;6.72;2.55;;;18.40;84.70;;;;;;5072764;28;20057;-77
2022/05/27 11:19:58;;;;;;;9.15;2.70;;;18.00;84.10;;;;;;5073480;28;20041;-78
2022/05/27 11:22:55;;;;;;;9.10;2.55;;;17.60;85.20;;;;;;5049701;28;20041;-79
2022/05/27 11:25:46;;;;;;;8.23;2.85;;;17.80;85.70;;;;;;5092291;28;20184;-78
2022/05/27 11:28:33;;;;;;;5.32;2.45;;;17.70;87.10;;;;;;5093546;28;20119;-78
2022/05/27 11:31:28;;;;;;;8.88;2.47;;;17.30;86.70;;;;;;5092887;28;20051;-78
2022/05/27 11:34:33;;;;;;;10.13;3.65;;;16.90;88.40;;;;;;5094420;28;20072;-79
2022/05/27 11:37:17;;;;;;;11.63;3.00;;;17.10;90.50;;;;;;5093734;28;20049;-76
2022/05/27 11:40:02;;;;;;;7.28;2.83;;;16.90;88.80;;;;;;5094645;28;20052;-78
2022/05/27 11:42:59;;;;;;;5.07;2.58;;;16.80;88.90;;;;;;5094183;28;20067;-78
2022/05/27 11:45:30;;;;;;;7.68;2.55;;;16.90;89.00;;;;;;5085919;28;20052;-78
2022/05/27 11:48:03;;;;;;;8.48;2.10;;;17.10;87.60;;;;;;5073248;28;20036;-77
2022/05/27 11:50:31;;;;;;;6.30;2.60;;;17.10;86.60;;;;;;5072734;28;20076;-76
2022/05/27 11:53:09;;;;;;;8.57;3.15;;;17.00;87.30;;;;;;5073026;28;20361;-78
2022/05/27 11:55:53;;;;;;;7.43;2.60;;;17.00;90.20;;;;;;5072659;28;20044;-77
2022/05/27 11:58:52;;;;;;;8.05;2.60;;;16.80;87.70;;;;;;5072400;28;20513;-78
2022/05/27 12:01:26;;;;;;;10.25;2.83;;;17.00;88.50;;;;;;5072426;28;20048;-79
2022/05/27 12:04:10;;;;;;;7.43;2.38;;;17.00;89.50;;;;;;5072901;28;20087;-77
2022/05/27 12:06:50;;;;;;;7.05;2.75;;;16.90;89.30;;;;;;5072941;28;20119;-77
2022/05/27 12:09:45;;;;;;;6.82;2.33;;;16.90;89.20;;;;;;5072500;28;20076;-77
2022/05/27 12:12:19;;;;;;;9.15;2.67;;;16.70;89.20;;;;;;5064979;28;20087;-78
2022/05/27 12:14:49;;;;;;;9.52;2.80;;;16.70;90.20;;;;;;5072692;28;20516;-78
2022/05/27 12:17:20;;;;;;;10.38;3.20;;;16.60;89.80;;;;;;5072338;28;20048;-77
2022/05/27 12:19:57;;;;;;;6.32;2.78;;;16.70;90.80;;;;;;5071797;28;20458;-77
2022/05/27 12:22:27;;;;;;;7.10;2.72;;;16.70;90.50;;;;;;5075731;28;20098;-77
2022/05/27 12:25:12;;;;;;;7.93;2.50;;;16.80;90.70;;;;;;5076129;28;20048;-78
2022/05/27 12:27:38;;;;;;;8.00;2.67;;;16.70;90.40;;;;;;5075162;28;20029;-73
2022/05/27 12:30:08;;;;;;;12.90;4.07;;;16.70;90.90;;;;;;5074930;28;20116;-74
2022/05/27 12:32:38;;;;;;;11.30;2.97;;;16.90;91.30;;;;;;5075512;28;20041;-74
2022/05/27 12:35:33;;;;;;;6.63;3.35;;;17.20;90.70;;;;;;5075395;28;20048;-75
2022/05/27 12:38:16;;;;;;;6.97;2.67;;;16.90;90.70;;;;;;5075842;28;20109;-74
2022/05/27 12:40:49;;;;;;;4.63;2.63;;;16.80;90.80;;;;;;5075100;28;20099;-74
2022/05/27 12:43:27;;;;;;;6.38;3.33;;;16.50;90.70;;;;;;5075161;28;20059;-74
2022/05/27 12:46:15;;;;;;;8.40;3.00;;;16.40;91.30;;;;;;5075363;28;20525;-74
2022/05/27 12:48:43;;;;;;;9.63;3.40;;;16.20;91.70;;;;;;5061017;28;20060;-75
2022/05/27 12:51:15;;;;;;;11.23;2.83;;;16.40;92.20;;;;;;5075819;28;20554;-73
2022/05/27 12:53:56;;;;;;;7.85;3.13;;;16.80;92.30;;;;;;5074798;28;20070;-74
2022/05/27 13:02:19;;;;;;;4.00;2.40;;;17.10;90.60;;;;;;5074832;28;20056;-74
2022/05/27 13:04:50;;;;;;;7.00;2.47;;;16.80;90.60;;;;;;5074819;28;20060;-75
2022/05/27 13:07:36;;;;;;;3.85;2.47;;;16.60;90.70;;;;;;5074874;28;20421;-74
2022/05/27 13:10:17;;;;;;;6.80;2.85;;;16.50;91.00;;;;;;5060205;28;20213;-74
2022/05/27 13:12:45;;;;;;;5.88;3.10;;;16.40;90.70;;;;;;5074543;28;20049;-74
2022/05/27 13:15:43;;;;;;;8.95;3.13;;;16.40;91.80;;;;;;5074264;28;20144;-73
2022/05/27 13:18:12;;;;;;;9.55;2.55;;;16.40;91.30;;;;;;5068841;28;20125;-78
2022/05/27 13:21:08;;;;;;;6.63;3.13;;;16.60;92.10;;;;;;5074305;28;20481;-78
2022/05/27 13:23:47;;;;;;;6.43;2.65;;;16.80;91.40;;;;;;5074628;28;20040;-79
2022/05/27 13:26:38;;;;;;;5.88;2.35;;;17.10;91.80;;;;;;5074502;28;20048;-78
2022/05/27 13:29:27;;;;;;;7.35;2.55;;;17.00;91.20;;;;;;5074799;28;20080;-79
2022/05/27 13:32:03;;;;;;;8.45;3.22;;;16.70;91.00;;;;;;5074357;28;20087;-78
2022/05/27 13:34:34;;;;;;;4.97;2.42;;;16.60;91.90;;;;;;5074214;28;20063;-79
2022/05/27 13:37:04;;;;;;;7.30;2.78;;;16.50;92.00;;;;;;5074295;28;20053;-78
2022/05/27 13:39:56;;;;;;;7.10;2.47;;;16.60;92.20;;;;;;5056021;28;20044;-79
2022/05/27 13:42:35;;;;;;;8.85;2.50;;;16.40;92.00;;;;;;5074591;28;20127;-78
2022/05/27 13:45:12;;;;;;;9.43;2.55;;;16.00;91.80;;;;;;5074478;28;20052;-78
2022/05/27 13:48:33;;;;;;;8.45;2.28;;;16.10;92.70;;;;;;5074529;28;20052;-79
2022/05/27 13:51:12;;;;;;;9.52;2.40;;;16.10;92.60;;;;;;5011951;28;20196;-78
2022/05/27 13:53:38;;;;;;;7.07;2.85;;;16.30;92.00;;;;;;5066247;28;20110;-78
2022/05/27 13:56:14;;;;;;;4.75;2.63;;;16.30;92.20;;;;;;5073870;28;20132;-78
2022/05/27 13:58:54;;;;;;;8.63;2.72;;;16.40;91.90;;;;;;5073742;28;20488;-78